createdAt,value
2018-12-17T00:00:35.152Z,31.93
2018-12-17T00:02:37.769Z,37.83
2018-12-17T00:04:40.331Z,22.37
2018-12-17T00:06:43.034Z,25.80
2018-12-17T00:08:45.878Z,28.37
2018-12-17T00:10:48.470Z,31.80
2018-12-17T00:12:51.156Z,21.73
2018-12-17T00:14:53.795Z,29.23
2018-12-17T00:16:56.373Z,32.67
2018-12-17T00:18:59.029Z,25.57
2018-12-17T00:21:01.662Z,21.67
2018-12-17T00:23:04.570Z,23.90
2018-12-17T00:25:07.194Z,23.63
2018-12-17T00:27:09.818Z,23.17
2018-12-17T00:29:13.398Z,22.87
2018-12-17T00:31:16.002Z,22.97
2018-12-17T00:33:18.687Z,25.03
2018-12-17T00:35:21.319Z,21.90
2018-12-17T00:37:24.675Z,23.57
2018-12-17T00:39:27.231Z,22.60
2018-12-17T00:41:29.789Z,23.17
2018-12-17T00:43:32.563Z,21.20
2018-12-17T00:45:35.288Z,19.30
2018-12-17T00:47:37.850Z,20.87
2018-12-17T00:49:40.390Z,21.83
2018-12-17T00:51:43.073Z,21.10
2018-12-17T00:53:45.622Z,22.70
2018-12-17T00:55:48.170Z,20.23
2018-12-17T00:57:50.740Z,20.53
2018-12-17T00:59:53.258Z,21.80
2018-12-17T01:01:57.037Z,20.77
2018-12-17T01:03:59.681Z,20.50
2018-12-17T01:06:02.330Z,19.77
2018-12-17T01:08:04.939Z,21.03
2018-12-17T01:10:07.674Z,20.37
2018-12-17T01:12:10.378Z,19.73
2018-12-17T01:14:12.969Z,20.17
2018-12-17T01:16:15.606Z,21.73
2018-12-17T01:18:18.209Z,20.27
2018-12-17T01:20:20.750Z,21.10
2018-12-17T01:22:23.303Z,18.80
2018-12-17T01:24:25.844Z,19.23
2018-12-17T01:26:28.625Z,20.03
2018-12-17T01:28:31.215Z,18.77
2018-12-17T01:30:33.903Z,17.70
2018-12-17T01:32:36.626Z,21.73
2018-12-17T01:34:39.234Z,21.67
2018-12-17T01:36:41.833Z,22.13
2018-12-17T01:38:45.027Z,20.77
2018-12-17T01:40:47.752Z,20.70
2018-12-17T01:42:50.298Z,20.93
2018-12-17T01:44:52.871Z,22.47
2018-12-17T01:46:55.534Z,21.67
2018-12-17T01:48:58.065Z,22.00
2018-12-17T01:51:00.685Z,22.10
2018-12-17T01:53:03.213Z,21.57
2018-12-17T01:55:05.834Z,25.93
2018-12-17T01:57:08.517Z,28.60
2018-12-17T01:59:11.224Z,28.40
2018-12-17T02:01:13.825Z,24.93
2018-12-17T02:03:16.405Z,26.40
2018-12-17T02:05:19.049Z,25.73
2018-12-17T02:07:21.604Z,23.13
2018-12-17T02:09:24.169Z,25.47
2018-12-17T02:11:26.748Z,26.97
2018-12-17T02:13:29.347Z,25.67
2018-12-17T02:15:31.995Z,25.50
2018-12-17T02:17:34.835Z,28.80
2018-12-17T02:19:37.365Z,26.20
2018-12-17T02:21:39.873Z,24.70
2018-12-17T02:23:42.441Z,25.93
2018-12-17T02:25:44.993Z,30.60
2018-12-17T02:27:47.623Z,28.20
2018-12-17T02:29:50.717Z,26.93
2018-12-17T02:31:53.336Z,25.10
2018-12-17T02:33:56.136Z,22.50
2018-12-17T02:35:58.696Z,25.33
2018-12-17T02:38:01.306Z,26.03
2018-12-17T02:40:05.037Z,22.73
2018-12-17T02:42:07.734Z,22.17
2018-12-17T02:44:10.905Z,21.27
2018-12-17T02:46:13.442Z,23.60
2018-12-17T02:48:16.028Z,22.57
2018-12-17T02:50:18.576Z,25.27
2018-12-17T02:52:21.134Z,23.07
2018-12-17T02:54:23.678Z,23.67
2018-12-17T02:56:26.233Z,23.40
2018-12-17T02:58:28.967Z,24.20
2018-12-17T03:00:31.647Z,24.70
2018-12-17T03:02:34.190Z,23.60
2018-12-17T03:04:36.717Z,26.57
2018-12-17T03:06:39.240Z,23.17
2018-12-17T03:08:41.991Z,23.17
2018-12-17T03:10:44.544Z,26.30
2018-12-17T03:12:47.127Z,24.73
2018-12-17T03:14:49.690Z,23.37
2018-12-17T03:16:52.517Z,22.33
2018-12-17T03:18:55.125Z,23.73
2018-12-17T03:20:57.694Z,23.33
2018-12-17T03:23:00.320Z,22.03
2018-12-17T03:27:11.793Z,23.70
2018-12-17T03:29:14.324Z,24.30
2018-12-17T03:31:17.075Z,23.60
2018-12-17T03:33:19.713Z,21.80
2018-12-17T03:35:22.334Z,23.83
2018-12-17T03:37:24.941Z,23.47
2018-12-17T03:39:27.542Z,21.10
2018-12-17T03:41:30.244Z,21.97
2018-12-17T03:43:32.833Z,20.53
2018-12-17T03:45:35.371Z,22.10
2018-12-17T03:47:37.910Z,22.50
2018-12-17T03:49:40.461Z,21.10
2018-12-17T03:51:43.029Z,21.63
2018-12-17T03:53:45.585Z,25.27
2018-12-17T03:55:48.293Z,23.37
2018-12-17T03:57:51.055Z,26.20
2018-12-17T03:59:53.716Z,27.20
2018-12-17T04:01:56.922Z,26.77
2018-12-17T04:03:59.480Z,27.17
2018-12-17T04:06:02.016Z,28.70
2018-12-17T04:08:04.630Z,25.10
2018-12-17T04:10:07.238Z,25.67
2018-12-17T04:12:09.802Z,25.23
2018-12-17T04:14:12.366Z,23.60
2018-12-17T04:16:15.003Z,22.53
2018-12-17T04:18:17.607Z,21.47
2018-12-17T04:20:20.138Z,19.73
2018-12-17T04:22:22.842Z,21.27
2018-12-17T04:24:25.736Z,18.87
2018-12-17T04:26:28.272Z,20.47
2018-12-17T04:28:30.801Z,21.20
2018-12-17T04:30:33.328Z,22.57
2018-12-17T04:32:35.867Z,25.73
2018-12-17T04:34:38.447Z,22.47
2018-12-17T04:36:40.980Z,21.23
2018-12-17T04:38:43.513Z,21.00
2018-12-17T04:40:46.090Z,20.70
2018-12-17T04:42:48.692Z,22.03
2018-12-17T04:44:51.240Z,21.17
2018-12-17T04:46:53.841Z,19.07
2018-12-17T04:48:56.398Z,20.67
2018-12-17T04:50:58.916Z,18.73
2018-12-17T04:53:01.642Z,19.23
2018-12-17T04:55:04.405Z,21.00
2018-12-17T04:57:06.954Z,19.70
2018-12-17T04:59:14.512Z,20.10
2018-12-17T05:01:14.223Z,23.87
2018-12-17T05:03:16.944Z,21.63
2018-12-17T05:05:19.514Z,20.10
2018-12-17T05:07:22.026Z,23.27
2018-12-17T05:09:24.578Z,21.70
2018-12-17T05:11:27.103Z,24.27
2018-12-17T05:13:29.651Z,24.07
2018-12-17T05:15:32.317Z,24.43
2018-12-17T05:17:35.029Z,21.20
2018-12-17T05:19:37.707Z,19.33
2018-12-17T05:23:49.191Z,20.33
2018-12-17T05:25:51.898Z,21.33
2018-12-17T05:27:54.420Z,21.23
2018-12-17T05:29:57.286Z,18.57
2018-12-17T05:31:59.804Z,17.73
2018-12-17T05:34:02.682Z,22.90
2018-12-17T05:36:05.472Z,21.50
2018-12-17T05:38:08.144Z,22.30
2018-12-17T05:40:10.709Z,20.33
2018-12-17T05:42:13.305Z,20.17
2018-12-17T05:44:15.849Z,20.20
2018-12-17T05:46:18.449Z,20.93
2018-12-17T05:48:20.965Z,21.53
2018-12-17T05:50:23.558Z,23.80
2018-12-17T05:52:26.111Z,21.80
2018-12-17T05:54:28.733Z,20.87
2018-12-17T05:56:31.567Z,19.27
2018-12-17T05:58:34.087Z,20.50
2018-12-17T06:00:36.679Z,22.37
2018-12-17T06:02:39.190Z,20.63
2018-12-17T06:04:41.817Z,23.40
2018-12-17T06:06:44.403Z,21.67
2018-12-17T06:08:47.162Z,24.20
2018-12-17T06:10:49.838Z,26.03
2018-12-17T06:12:52.421Z,22.70
2018-12-17T06:14:55.027Z,22.93
2018-12-17T06:16:57.566Z,23.40
2018-12-17T06:19:00.099Z,22.80
2018-12-17T06:21:02.649Z,21.83
2018-12-17T06:23:05.245Z,22.20
2018-12-17T06:25:07.829Z,25.00
2018-12-17T06:27:10.527Z,25.40
2018-12-17T06:29:13.195Z,28.03
2018-12-17T06:31:15.834Z,20.87
2018-12-17T06:33:18.595Z,22.80
2018-12-17T06:35:21.210Z,23.40
2018-12-17T06:37:23.877Z,26.47
2018-12-17T06:39:26.635Z,23.10
2018-12-17T06:41:29.212Z,23.83
2018-12-17T06:43:31.734Z,22.10
2018-12-17T06:45:34.326Z,29.90
2018-12-17T06:47:36.874Z,20.33
2018-12-17T06:49:39.436Z,20.73
2018-12-17T06:51:42.390Z,23.73
2018-12-17T06:53:44.946Z,15.03
2018-12-17T06:55:47.474Z,19.83
2018-12-17T06:57:50.245Z,17.60
2018-12-17T06:59:52.861Z,16.77
2018-12-17T07:01:55.482Z,19.53
2018-12-17T07:03:58.101Z,19.13
2018-12-17T07:06:00.665Z,17.30
2018-12-17T07:08:03.273Z,16.60
2018-12-17T07:10:05.950Z,17.33
2018-12-17T07:12:08.625Z,17.77
2018-12-17T07:14:11.149Z,16.93
2018-12-17T07:16:13.846Z,17.20
2018-12-17T07:18:16.373Z,20.80
2018-12-17T07:20:18.936Z,21.30
2018-12-17T07:22:21.573Z,20.03
2018-12-17T07:24:24.230Z,21.13
2018-12-17T07:26:26.759Z,22.60
2018-12-17T07:28:29.341Z,19.93
2018-12-17T07:30:31.853Z,23.03
2018-12-17T07:32:34.461Z,30.77
2018-12-17T07:34:37.500Z,24.60
2018-12-17T07:36:40.247Z,26.23
2018-12-17T07:38:42.874Z,48.73
2018-12-17T07:40:45.394Z,28.97
2018-12-17T07:42:48.089Z,28.87
2018-12-17T07:44:50.705Z,26.87
2018-12-17T07:46:53.454Z,27.27
2018-12-17T07:48:55.997Z,27.93
2018-12-17T07:50:58.681Z,25.63
2018-12-17T07:53:01.246Z,30.90
2018-12-17T07:55:04.489Z,28.33
2018-12-17T07:57:07.074Z,30.27
2018-12-17T07:59:09.617Z,33.00
2018-12-17T08:01:12.264Z,34.13
2018-12-17T08:03:14.831Z,35.00
2018-12-17T08:05:17.422Z,36.00
2018-12-17T08:07:19.946Z,34.40
2018-12-17T08:09:22.474Z,31.50
2018-12-17T08:11:25.142Z,35.83
2018-12-17T08:13:27.922Z,34.00
2018-12-17T08:15:30.468Z,34.70
2018-12-17T08:17:34.114Z,30.37
2018-12-17T08:19:36.725Z,31.70
2018-12-17T08:21:39.358Z,29.13
2018-12-17T08:23:41.995Z,29.90
2018-12-17T08:25:44.652Z,36.43
2018-12-17T08:27:47.985Z,35.20
2018-12-17T08:29:50.550Z,29.27
2018-12-17T08:31:53.143Z,32.60
2018-12-17T08:33:55.661Z,32.53
2018-12-17T08:35:58.466Z,36.37
2018-12-17T08:38:00.998Z,29.57
2018-12-17T08:40:04.024Z,33.77
2018-12-17T08:42:06.793Z,34.67
2018-12-17T08:44:09.579Z,33.23
2018-12-17T08:46:12.761Z,32.07
2018-12-17T08:48:15.285Z,37.77
2018-12-17T08:50:17.869Z,33.83
2018-12-17T08:52:20.541Z,33.97
2018-12-17T08:54:23.143Z,42.20
2018-12-17T08:56:25.897Z,36.13
2018-12-17T08:58:28.618Z,41.57
2018-12-17T09:00:31.255Z,32.90
2018-12-17T09:02:33.825Z,32.00
2018-12-17T09:04:36.435Z,34.80
2018-12-17T09:06:39.213Z,40.00
2018-12-17T09:08:41.783Z,30.40
2018-12-17T09:10:44.500Z,26.20
2018-12-17T09:12:47.118Z,30.10
2018-12-17T09:14:49.665Z,29.17
2018-12-17T09:16:52.273Z,27.20
2018-12-17T09:18:54.928Z,31.23
2018-12-17T09:20:57.545Z,28.40
2018-12-17T09:23:00.168Z,28.17
2018-12-17T09:25:03.249Z,30.10
2018-12-17T09:27:05.814Z,27.67
2018-12-17T09:29:08.652Z,28.80
2018-12-17T09:31:11.167Z,27.90
2018-12-17T09:33:13.797Z,22.80
2018-12-17T09:35:16.306Z,30.37
2018-12-17T09:37:18.953Z,24.60
2018-12-17T09:39:21.548Z,24.47
2018-12-17T09:41:24.094Z,26.53
2018-12-17T09:43:26.841Z,23.43
2018-12-17T09:45:29.974Z,25.40
2018-12-17T09:47:32.511Z,25.60
2018-12-17T09:49:35.062Z,25.47
2018-12-17T09:51:37.622Z,31.60
2018-12-17T09:53:40.262Z,24.87
2018-12-17T09:55:42.797Z,27.60
2018-12-17T09:57:45.475Z,22.57
2018-12-17T09:59:48.157Z,24.50
2018-12-17T10:01:50.697Z,25.13
2018-12-17T10:03:53.312Z,27.03
2018-12-17T10:05:55.858Z,20.27
2018-12-17T10:07:58.441Z,20.37
2018-12-17T10:10:01.063Z,23.23
2018-12-17T10:12:03.793Z,22.83
2018-12-17T10:14:06.345Z,16.77
2018-12-17T10:16:08.973Z,18.70
2018-12-17T10:18:11.705Z,21.60
2018-12-17T10:20:14.250Z,23.57
2018-12-17T10:22:16.880Z,23.43
2018-12-17T10:24:19.486Z,22.77
2018-12-17T10:26:22.378Z,25.10
2018-12-17T10:28:24.882Z,22.70
2018-12-17T10:30:32.442Z,25.90
2018-12-17T10:32:31.973Z,20.10
2018-12-17T10:34:34.688Z,22.63
2018-12-17T10:36:37.382Z,24.87
2018-12-17T10:38:39.949Z,23.33
2018-12-17T10:40:42.605Z,21.63
2018-12-17T10:42:45.306Z,23.90
2018-12-17T10:44:47.990Z,21.80
2018-12-17T10:46:50.714Z,20.17
2018-12-17T10:48:53.249Z,26.10
2018-12-17T10:50:55.797Z,26.40
2018-12-17T10:52:58.330Z,24.23
2018-12-17T10:55:00.866Z,24.80
2018-12-17T10:57:03.590Z,22.00
2018-12-17T10:59:06.129Z,22.50
2018-12-17T11:01:14.419Z,21.33
2018-12-17T11:03:26.068Z,23.13
2018-12-17T11:05:29.070Z,25.03
2018-12-17T11:07:31.599Z,24.30
2018-12-17T11:09:34.158Z,26.33
2018-12-17T11:11:36.781Z,22.73
2018-12-17T11:13:39.296Z,23.47
2018-12-17T11:15:41.958Z,19.63
2018-12-17T11:17:44.782Z,25.03
2018-12-17T11:19:47.682Z,25.60
2018-12-17T11:21:50.328Z,23.80
2018-12-17T11:23:52.846Z,29.83
2018-12-17T11:25:55.453Z,38.47
2018-12-17T11:27:57.983Z,25.80
2018-12-17T11:30:00.630Z,20.17
2018-12-17T11:32:03.369Z,24.20
2018-12-17T11:34:05.883Z,26.07
2018-12-17T11:36:08.573Z,25.57
2018-12-17T11:38:11.138Z,25.73
2018-12-17T11:40:13.669Z,29.53
2018-12-17T11:42:16.600Z,24.73
2018-12-17T11:44:19.110Z,24.20
2018-12-17T11:46:21.734Z,22.17
2018-12-17T11:48:24.585Z,25.83
2018-12-17T11:50:27.325Z,27.37
2018-12-17T11:52:29.975Z,23.07
2018-12-17T11:54:32.676Z,23.47
2018-12-17T11:56:40.130Z,24.67
2018-12-17T11:58:42.665Z,23.00
2018-12-17T12:00:53.505Z,21.67
2018-12-17T12:02:51.541Z,20.87
2018-12-17T12:04:54.068Z,26.43
2018-12-17T12:06:56.646Z,20.73
2018-12-17T12:08:59.213Z,22.03
2018-12-17T12:11:01.758Z,24.03
2018-12-17T12:13:04.446Z,23.17
2018-12-17T12:15:07.101Z,23.30
2018-12-17T12:17:09.753Z,22.63
2018-12-17T12:19:12.285Z,21.30
2018-12-17T12:21:14.937Z,21.83
2018-12-17T12:23:17.461Z,21.97
2018-12-17T12:25:20.088Z,20.63
2018-12-17T12:27:22.831Z,20.00
2018-12-17T12:29:25.462Z,21.90
2018-12-17T12:31:28.044Z,19.53
2018-12-17T12:33:30.748Z,18.23
2018-12-17T12:35:33.321Z,17.97
2018-12-17T12:37:35.854Z,17.60
2018-12-17T12:39:38.475Z,16.57
2018-12-17T12:41:40.995Z,18.27
2018-12-17T12:43:43.521Z,17.47
2018-12-17T12:45:46.123Z,16.47
2018-12-17T12:47:48.769Z,19.90
2018-12-17T12:49:51.527Z,15.17
2018-12-17T12:51:54.145Z,18.97
2018-12-17T12:53:56.837Z,19.33
2018-12-17T12:55:59.464Z,16.87
2018-12-17T12:58:03.777Z,20.53
2018-12-17T13:00:08.153Z,20.10
2018-12-17T13:02:10.818Z,18.30
2018-12-17T13:04:13.480Z,17.27
2018-12-17T13:06:16.035Z,17.97
2018-12-17T13:08:18.731Z,18.27
2018-12-17T13:10:21.255Z,19.23
2018-12-17T13:12:23.919Z,17.00
2018-12-17T13:14:26.502Z,21.07
2018-12-17T13:16:29.075Z,17.77
2018-12-17T13:18:31.610Z,20.03
2018-12-17T13:20:34.126Z,19.50
2018-12-17T13:22:36.770Z,18.20
2018-12-17T13:24:39.433Z,18.93
2018-12-17T13:26:42.066Z,20.07
2018-12-17T13:28:44.651Z,18.20
2018-12-17T13:30:47.157Z,18.33
2018-12-17T13:32:49.762Z,26.60
2018-12-17T13:34:52.278Z,24.23
2018-12-17T13:36:54.864Z,29.27
2018-12-17T13:38:57.397Z,29.73
2018-12-17T13:41:00.049Z,21.40
2018-12-17T13:43:02.726Z,17.77
2018-12-17T13:45:05.842Z,21.70
2018-12-17T13:47:08.366Z,21.47
2018-12-17T13:49:11.039Z,18.93
2018-12-17T13:51:32.673Z,17.87
2018-12-17T13:53:35.230Z,17.90
2018-12-17T13:55:37.789Z,23.60
2018-12-17T13:57:40.355Z,25.27
2018-12-17T13:59:43.159Z,19.80
2018-12-17T14:01:51.440Z,21.40
2018-12-17T14:03:50.349Z,20.87
2018-12-17T14:05:52.873Z,18.00
2018-12-17T14:07:55.477Z,18.73
2018-12-17T14:10:03.835Z,17.53
2018-12-17T14:12:06.445Z,19.20
2018-12-17T14:14:09.028Z,19.53
2018-12-17T14:16:14.740Z,16.87
2018-12-17T14:18:23.347Z,16.27
2018-12-17T14:20:31.761Z,17.53
2018-12-17T14:22:34.274Z,17.87
2018-12-17T14:24:36.987Z,19.40
2018-12-17T14:26:39.518Z,20.77
2018-12-17T14:28:42.073Z,18.43
2018-12-17T14:30:44.634Z,19.20
2018-12-17T14:32:47.240Z,19.97
2018-12-17T14:34:49.974Z,20.83
2018-12-17T14:36:52.609Z,23.97
2018-12-17T14:38:55.246Z,20.93
2018-12-17T14:40:58.066Z,18.93
2018-12-17T14:43:00.708Z,22.23
2018-12-17T14:45:04.304Z,21.70
2018-12-17T14:47:06.885Z,21.70
2018-12-17T14:49:09.419Z,23.40
2018-12-17T14:51:11.987Z,21.80
2018-12-17T14:53:14.545Z,22.10
2018-12-17T14:55:17.865Z,25.43
2018-12-17T14:57:20.403Z,28.03
2018-12-17T14:59:22.957Z,34.70
2018-12-17T15:01:25.622Z,29.23
2018-12-17T15:03:28.246Z,26.57
2018-12-17T15:05:30.863Z,24.50
2018-12-17T15:07:33.479Z,24.57
2018-12-17T15:09:36.017Z,24.10
2018-12-17T15:11:38.764Z,28.30
2018-12-17T15:13:41.466Z,28.00
2018-12-17T15:15:44.193Z,29.23
2018-12-17T15:17:46.965Z,26.90
2018-12-17T15:19:49.510Z,30.47
2018-12-17T15:21:52.129Z,31.57
2018-12-17T15:23:54.797Z,31.10
2018-12-17T15:25:57.327Z,31.97
2018-12-17T15:27:59.909Z,27.37
2018-12-17T15:30:02.457Z,26.37
2018-12-17T15:32:05.157Z,26.93
2018-12-17T15:34:07.758Z,25.63
2018-12-17T15:36:10.482Z,28.43
2018-12-17T15:38:13.171Z,27.27
2018-12-17T15:40:15.681Z,31.03
2018-12-17T15:42:18.333Z,32.97
2018-12-17T15:44:20.848Z,28.40
2018-12-17T15:46:23.438Z,28.47
2018-12-17T15:48:25.998Z,33.37
2018-12-17T15:50:28.514Z,27.37
2018-12-17T15:52:31.113Z,27.10
2018-12-17T15:54:33.913Z,33.20
2018-12-17T15:56:36.628Z,29.97
2018-12-17T15:58:39.198Z,30.93
2018-12-17T16:00:41.774Z,33.20
2018-12-17T16:02:44.399Z,35.90
2018-12-17T16:04:47.199Z,30.93
2018-12-17T16:06:49.729Z,27.10
2018-12-17T16:08:52.273Z,31.63
2018-12-17T16:10:54.836Z,31.50
2018-12-17T16:12:57.374Z,31.60
2018-12-17T16:15:00.163Z,26.47
2018-12-17T16:17:02.705Z,29.20
2018-12-17T16:19:05.408Z,29.27
2018-12-17T16:21:08.070Z,31.40
2018-12-17T16:23:10.713Z,32.33
2018-12-17T16:25:13.525Z,28.10
2018-12-17T16:27:19.357Z,30.13
2018-12-17T16:29:20.769Z,28.97
2018-12-17T16:31:23.403Z,30.03
2018-12-17T16:33:29.915Z,30.07
2018-12-17T16:35:30.498Z,27.97
2018-12-17T16:37:33.025Z,39.67
2018-12-17T16:39:35.658Z,46.13
2018-12-17T16:41:38.241Z,40.57
2018-12-17T16:43:40.766Z,42.23
2018-12-17T16:45:43.435Z,41.10
2018-12-17T16:47:45.971Z,34.30
2018-12-17T16:49:48.979Z,32.13
2018-12-17T16:51:51.632Z,30.50
2018-12-17T16:53:54.278Z,33.83
2018-12-17T16:55:56.889Z,32.00
2018-12-17T16:57:59.516Z,39.33
2018-12-17T17:00:02.162Z,30.03
2018-12-17T17:02:04.894Z,43.13
2018-12-17T17:04:07.453Z,38.00
2018-12-17T17:06:10.179Z,34.80
2018-12-17T17:08:12.755Z,34.63
2018-12-17T17:10:15.392Z,32.20
2018-12-17T17:12:17.955Z,33.07
2018-12-17T17:14:20.495Z,31.80
2018-12-17T17:16:23.065Z,31.60
2018-12-17T17:18:25.693Z,37.23
2018-12-17T17:20:28.310Z,29.37
2018-12-17T17:22:30.849Z,31.70
2018-12-17T17:24:33.392Z,31.37
2018-12-17T17:26:36.207Z,30.10
2018-12-17T17:28:38.933Z,29.27
2018-12-17T17:30:41.541Z,31.97
2018-12-17T17:32:44.102Z,33.13
2018-12-17T17:34:46.654Z,31.43
2018-12-17T17:36:49.163Z,36.50
2018-12-17T17:38:51.825Z,33.30
2018-12-17T17:40:54.368Z,33.63
2018-12-17T17:42:57.041Z,34.37
2018-12-17T17:44:59.556Z,35.37
2018-12-17T17:47:02.174Z,39.37
2018-12-17T17:49:04.727Z,47.63
2018-12-17T17:51:07.332Z,54.07
2018-12-17T17:53:09.968Z,59.07
2018-12-17T17:55:12.510Z,49.77
2018-12-17T17:57:15.036Z,52.83
2018-12-17T17:59:17.574Z,41.00
2018-12-17T18:01:20.155Z,42.60
2018-12-17T18:03:22.722Z,42.83
2018-12-17T18:05:25.409Z,44.23
2018-12-17T18:07:28.073Z,42.47
2018-12-17T18:09:30.703Z,39.07
2018-12-17T18:11:33.401Z,40.20
2018-12-17T18:13:36.103Z,30.87
2018-12-17T18:15:40.981Z,36.53
2018-12-17T18:17:43.327Z,39.40
2018-12-17T18:19:45.957Z,34.77
2018-12-17T18:21:48.594Z,41.57
2018-12-17T18:23:51.137Z,36.33
2018-12-17T18:25:53.739Z,36.80
2018-12-17T18:27:56.382Z,38.13
2018-12-17T18:29:58.981Z,38.17
2018-12-17T18:32:01.536Z,40.07
2018-12-17T18:34:04.402Z,32.10
2018-12-17T18:36:07.021Z,37.63
2018-12-17T18:38:09.682Z,45.87
2018-12-17T18:40:12.439Z,49.60
2018-12-17T18:42:15.056Z,49.30
2018-12-17T18:44:17.713Z,47.03
2018-12-17T18:46:20.276Z,42.67
2018-12-17T18:50:31.635Z,39.83
2018-12-17T18:52:34.226Z,30.27
2018-12-17T18:54:36.802Z,33.80
2018-12-17T18:56:39.463Z,34.73
2018-12-17T18:58:42.017Z,33.03
2018-12-17T19:00:44.562Z,36.17
2018-12-17T19:02:47.097Z,33.67
2018-12-17T19:04:49.620Z,36.47
2018-12-17T19:06:52.298Z,37.00
2018-12-17T19:08:55.032Z,39.80
2018-12-17T19:10:57.561Z,35.33
2018-12-17T19:13:00.139Z,37.27
2018-12-17T19:15:02.787Z,45.23
2018-12-17T19:17:05.313Z,66.97
2018-12-17T19:19:07.957Z,55.23
2018-12-17T19:21:10.523Z,52.90
2018-12-17T19:23:13.150Z,62.30
2018-12-17T19:25:15.723Z,65.87
2018-12-17T19:27:18.391Z,57.50
2018-12-17T19:29:21.011Z,50.37
2018-12-17T19:31:23.823Z,44.73
2018-12-17T19:33:26.502Z,42.63
2018-12-17T19:35:29.236Z,35.67
2018-12-17T19:37:31.864Z,35.97
2018-12-17T19:39:34.492Z,43.47
2018-12-17T19:41:37.005Z,40.23
2018-12-17T19:43:39.619Z,37.13
2018-12-17T19:45:42.189Z,38.30
2018-12-17T19:47:44.819Z,41.53
2018-12-17T19:49:47.471Z,46.17
2018-12-17T19:51:49.994Z,42.80
2018-12-17T19:53:52.615Z,34.37
2018-12-17T19:55:55.292Z,34.57
2018-12-17T19:57:57.988Z,33.10
2018-12-17T20:00:00.533Z,37.23
2018-12-17T20:02:03.173Z,25.93
2018-12-17T20:04:05.743Z,23.63
2018-12-17T20:06:08.343Z,21.63
2018-12-17T20:08:10.996Z,20.47
2018-12-17T20:10:15.694Z,21.53
2018-12-17T20:12:18.214Z,19.60
2018-12-17T20:14:20.779Z,19.43
2018-12-17T20:16:23.445Z,23.33
2018-12-17T20:18:26.230Z,23.07
2018-12-17T20:20:28.870Z,32.97
2018-12-17T20:22:31.439Z,29.30
2018-12-17T20:24:34.127Z,30.63
2018-12-17T20:26:36.659Z,24.20
2018-12-17T20:28:39.175Z,22.50
2018-12-17T20:30:41.783Z,22.90
2018-12-17T20:32:44.306Z,28.80
2018-12-17T20:34:46.864Z,26.67
2018-12-17T20:36:49.486Z,28.63
2018-12-17T20:38:52.178Z,31.93
2018-12-17T20:40:54.750Z,35.53
2018-12-17T20:42:57.518Z,42.47
2018-12-17T20:45:00.235Z,33.77
2018-12-17T20:47:02.946Z,36.73
2018-12-17T20:49:05.652Z,30.93
2018-12-17T20:51:08.298Z,31.57
2018-12-17T20:53:10.821Z,25.50
2018-12-17T20:55:13.580Z,27.83
2018-12-17T20:57:16.156Z,33.77
2018-12-17T20:59:18.779Z,25.87
2018-12-17T21:01:21.695Z,20.77
2018-12-17T21:03:24.357Z,19.33
2018-12-17T21:05:26.919Z,19.77
2018-12-17T21:07:29.615Z,23.03
2018-12-17T21:09:32.178Z,20.07
2018-12-17T21:11:34.749Z,17.73
2018-12-17T21:13:37.323Z,19.87
2018-12-17T21:15:39.882Z,22.80
2018-12-17T21:17:42.520Z,21.23
2018-12-17T21:19:45.174Z,24.23
2018-12-17T21:21:47.915Z,27.23
2018-12-17T21:23:50.570Z,23.73
2018-12-17T21:25:53.186Z,23.80
2018-12-17T21:27:55.827Z,28.17
2018-12-17T21:29:58.492Z,26.63
2018-12-17T21:32:01.042Z,28.43
2018-12-17T21:34:03.728Z,33.13
2018-12-17T21:36:06.403Z,52.00
2018-12-17T21:38:09.137Z,76.77
2018-12-17T21:40:11.846Z,56.53
2018-12-17T21:42:14.479Z,56.20
2018-12-17T21:44:17.155Z,53.13
2018-12-17T21:46:19.796Z,61.07
2018-12-17T21:48:22.306Z,69.03
2018-12-17T21:50:24.844Z,56.97
2018-12-17T21:52:27.401Z,58.80
2018-12-17T21:54:30.048Z,49.20
2018-12-17T21:56:32.716Z,43.00
2018-12-17T21:58:35.283Z,39.50
2018-12-17T22:00:37.814Z,34.40
2018-12-17T22:02:40.362Z,36.43
2018-12-17T22:04:42.886Z,33.00
2018-12-17T22:06:45.501Z,31.33
2018-12-17T22:08:48.107Z,33.93
2018-12-17T22:10:50.751Z,31.60
2018-12-17T22:12:53.522Z,32.73
2018-12-17T22:14:56.191Z,29.33
2018-12-17T22:16:58.825Z,31.97
2018-12-17T22:19:01.405Z,28.90
2018-12-17T22:21:04.178Z,27.47
2018-12-17T22:23:06.809Z,28.40
2018-12-17T22:25:09.539Z,28.07
2018-12-17T22:27:12.246Z,27.63
2018-12-17T22:29:14.846Z,28.07
2018-12-17T22:31:17.531Z,24.13
2018-12-17T22:33:20.308Z,21.30
2018-12-17T22:35:22.880Z,18.57
2018-12-17T22:37:25.432Z,21.00
2018-12-17T22:39:28.119Z,18.80
2018-12-17T22:41:30.628Z,20.57
2018-12-17T22:43:33.194Z,18.80
2018-12-17T22:45:36.303Z,19.17
2018-12-17T22:47:38.908Z,20.57
2018-12-17T22:49:41.496Z,19.73
2018-12-17T22:51:44.305Z,17.53
2018-12-17T22:53:46.953Z,25.47
2018-12-17T22:55:49.614Z,24.03
2018-12-17T22:57:52.206Z,32.23
2018-12-17T22:59:54.774Z,43.80
2018-12-17T23:01:57.476Z,38.57
2018-12-17T23:04:00.133Z,32.50
2018-12-17T23:06:02.690Z,25.97
2018-12-17T23:08:05.303Z,27.80
2018-12-17T23:10:19.681Z,26.50
2018-12-17T23:12:33.984Z,82.00
2018-12-17T23:14:48.385Z,35.10
2018-12-17T23:17:02.642Z,27.93
2018-12-17T23:19:04.792Z,21.33
2018-12-17T23:21:07.425Z,22.47
2018-12-17T23:23:10.669Z,23.73
2018-12-17T23:25:13.199Z,22.50
2018-12-17T23:27:15.838Z,26.93
2018-12-17T23:29:18.660Z,24.47
2018-12-17T23:31:21.254Z,25.57
2018-12-17T23:33:23.904Z,25.57
2018-12-17T23:35:26.592Z,22.87
2018-12-17T23:37:29.122Z,24.17
2018-12-17T23:39:31.866Z,24.37
2018-12-17T23:41:34.385Z,22.90
2018-12-17T23:43:37.118Z,20.53
2018-12-17T23:45:39.628Z,24.90
2018-12-17T23:47:42.157Z,21.33
2018-12-17T23:49:44.818Z,21.37
2018-12-17T23:51:47.692Z,21.30
2018-12-17T23:53:50.222Z,24.87
2018-12-17T23:55:52.798Z,23.90
2018-12-17T23:57:55.433Z,23.30
2018-12-17T23:59:58.054Z,23.73
